TAF MPMG
AMD MPMG 080300Z 0800/0812 CNL=
METAR MPMG
MPMG 080300Z 30004KT 9999 FEW020 26/23 Q1010 NOSIG=
MPMG 080200Z 30003KT 9999 FEW020 26/23 Q1010 NOSIG=
MPMG 080100Z 32003KT 9999 FEW020 27/23 Q1009 NOSIG=
MPMG 072300Z 35004KT 330V050 9000 FEW020 28/24 Q1008 NOSIG=
MPMG 072200Z 32007KT 9000 SCT020 30/24 Q1007 NOSIG=
WC MPMG
WS MPMG
WV MPMG